Time;durP1;ratioP1;P1;durP2;ratioP2;P2;SDS_P1;SDS_P2;PMS_P1;PMS_P2;Temp;Humidity;BMP_temperature;BMP_pressure;BME280_temperature;BME280_humidity;BME280_pressure;Samples;Min_cycle;Max_cycle;Signal;HPM_P1;HPM_P2
2023/12/30 00:01:33;;;;;;;;;;;9.90;99.90;;;;;;5023900;28;20391;-81
2023/12/30 00:03:59;;;;;;;;;;;9.80;99.90;;;;;;5024483;28;19917;-80
2023/12/30 00:06:24;;;;;;;;;;;9.80;99.90;;;;;;5031767;28;20721;-80
2023/12/30 00:08:50;;;;;;;;;;;9.80;99.90;;;;;;5024354;28;20295;-81
2023/12/30 00:11:15;;;;;;;;;;;9.80;99.90;;;;;;5032338;28;20376;-80
2023/12/30 00:13:41;;;;;;;;;;;9.80;99.90;;;;;;5023915;28;19931;-80
2023/12/30 00:16:06;;;;;;;;;;;9.80;99.90;;;;;;5024333;28;19909;-80
2023/12/30 00:18:32;;;;;;;;;;;9.80;99.90;;;;;;5024436;28;20280;-80
2023/12/30 00:20:59;;;;;;;;;;;9.80;99.90;;;;;;5024203;28;20444;-80
2023/12/30 00:23:24;;;;;;;;;;;9.80;99.90;;;;;;5013701;28;19908;-80
2023/12/30 00:25:50;;;;;;;;;;;9.80;99.90;;;;;;5023668;28;19908;-80
2023/12/30 00:28:16;;;;;;;;;;;9.80;99.90;;;;;;5023321;28;20363;-80
2023/12/30 00:30:41;;;;;;;;;;;9.80;99.90;;;;;;5023867;28;20317;-82
2023/12/30 00:33:07;;;;;;;;;;;9.80;99.90;;;;;;5022587;28;19910;-80
2023/12/30 00:35:32;;;;;;;;;;;9.80;99.90;;;;;;5023260;28;19905;-79
2023/12/30 00:37:58;;;;;;;;;;;9.80;99.90;;;;;;5024016;28;19909;-80
2023/12/30 00:40:23;;;;;;;;;;;9.80;99.90;;;;;;5023759;28;20459;-81
2023/12/30 00:42:49;;;;;;;;;;;9.80;99.90;;;;;;5023807;28;19971;-80
2023/12/30 00:45:14;;;;;;;;;;;9.80;99.90;;;;;;5023777;28;19917;-81
2023/12/30 00:47:40;;;;;;;;;;;9.80;99.90;;;;;;5026623;28;19948;-80
2023/12/30 00:50:06;;;;;;;;;;;9.80;99.90;;;;;;5021146;28;19917;-81
2023/12/30 00:52:31;;;;;;;;;;;9.80;99.90;;;;;;5038684;28;19916;-80
2023/12/30 00:54:57;;;;;;;;;;;9.80;99.90;;;;;;5020878;28;19909;-82
2023/12/30 00:57:22;;;;;;;;;;;9.70;99.90;;;;;;5023862;28;19909;-80
2023/12/30 00:59:48;;;;;;;;;;;9.80;99.90;;;;;;5023646;28;20431;-81
2023/12/30 01:02:13;;;;;;;;;;;9.70;99.90;;;;;;5023096;28;20711;-82
2023/12/30 01:04:39;;;;;;;;;;;9.70;99.90;;;;;;5023490;28;19917;-79
2023/12/30 01:07:04;;;;;;;;;;;9.70;99.90;;;;;;5023911;28;19909;-81
2023/12/30 01:09:30;;;;;;;;;;;9.70;99.90;;;;;;5023170;28;19916;-80
2023/12/30 01:11:55;;;;;;;;;;;9.60;99.90;;;;;;5037838;28;19984;-79
2023/12/30 01:14:21;;;;;;;;;;;9.70;99.90;;;;;;5023138;28;19970;-81
2023/12/30 01:16:46;;;;;;;;;;;9.70;99.90;;;;;;5019884;28;19984;-80
2023/12/30 01:19:12;;;;;;;;;;;9.70;99.90;;;;;;5023160;28;19916;-79
2023/12/30 01:21:38;;;;;;;;;;;9.60;99.90;;;;;;5020441;28;19940;-79
2023/12/30 01:24:04;;;;;;;;;;;9.60;99.90;;;;;;5015577;28;19955;-82
2023/12/30 01:26:29;;;;;;;;;;;9.70;99.90;;;;;;5022839;28;20383;-81
2023/12/30 01:28:55;;;;;;;;;;;9.70;99.90;;;;;;5022955;28;19924;-79
2023/12/30 01:31:20;;;;;;;;;;;9.70;99.90;;;;;;5022639;28;19909;-80
2023/12/30 01:33:46;;;;;;;;;;;9.70;99.90;;;;;;5022858;28;19917;-80
2023/12/30 01:36:12;;;;;;;;;;;9.70;99.90;;;;;;5022800;28;20532;-81
2023/12/30 01:38:38;;;;;;;;;;;9.70;99.90;;;;;;5022739;28;20450;-80
2023/12/30 01:41:03;;;;;;;;;;;9.60;99.90;;;;;;5036818;28;20031;-81
2023/12/30 01:43:30;;;;;;;;;;;9.70;99.90;;;;;;5023365;28;20006;-80
2023/12/30 01:46:00;;;;;;;;;;;9.70;99.90;;;;;;5022851;28;19909;-80
2023/12/30 01:48:26;;;;;;;;;;;9.60;99.90;;;;;;5022389;28;19920;-80
2023/12/30 01:50:52;;;;;;;;;;;9.60;99.90;;;;;;5015996;28;20318;-81
2023/12/30 01:53:19;;;;;;;;;;;9.60;99.90;;;;;;5022759;28;19909;-80
2023/12/30 01:55:49;;;;;;;;;;;9.60;99.90;;;;;;5022629;28;19940;-82
2023/12/30 01:58:14;;;;;;;;;;;9.60;99.90;;;;;;5022409;28;19917;-80
2023/12/30 02:00:41;;;;;;;;;;;9.60;99.90;;;;;;5022545;28;19982;-80
2023/12/30 02:03:07;;;;;;;;;;;9.60;99.90;;;;;;5022446;28;20396;-80
2023/12/30 02:05:33;;;;;;;;;;;9.60;99.90;;;;;;5022466;28;19963;-82
2023/12/30 02:07:59;;;;;;;;;;;9.60;99.90;;;;;;5022679;28;19909;-80
2023/12/30 02:10:24;;;;;;;;;;;9.60;99.90;;;;;;5022125;28;19909;-81
2023/12/30 02:12:50;;;;;;;;;;;9.60;99.90;;;;;;5022454;28;19999;-80
2023/12/30 02:15:19;;;;;;;;;;;9.60;99.90;;;;;;5029177;28;19905;-80
2023/12/30 02:17:44;;;;;;;;;;;9.50;99.90;;;;;;5020826;28;20510;-81
2023/12/30 02:20:10;;;;;;;;;;;9.50;99.90;;;;;;5022476;28;19909;-81
2023/12/30 02:22:39;;;;;;;;;;;9.60;99.90;;;;;;5012655;28;19915;-79
2023/12/30 02:25:05;;;;;;;;;;;9.50;99.90;;;;;;5020867;28;20000;-80
2023/12/30 02:27:31;;;;;;;;;;;9.40;99.90;;;;;;5022843;28;19996;-80
2023/12/30 02:29:56;;;;;;;;;;;9.50;99.90;;;;;;5023240;28;20292;-80
2023/12/30 02:32:22;;;;;;;;;;;9.50;99.90;;;;;;5022328;28;19955;-80
2023/12/30 02:34:47;;;;;;;;;;;9.50;99.90;;;;;;5021305;28;19909;-80
2023/12/30 02:37:13;;;;;;;;;;;9.50;99.90;;;;;;5022151;28;20046;-79
2023/12/30 02:39:38;;;;;;;;;;;9.50;99.90;;;;;;5022201;28;19917;-80
2023/12/30 02:42:04;;;;;;;;;;;9.50;99.90;;;;;;5037300;28;20885;-80
2023/12/30 02:44:29;;;;;;;;;;;9.50;99.90;;;;;;5022144;28;20003;-82
2023/12/30 02:46:55;;;;;;;;;;;9.50;99.90;;;;;;5015964;28;20038;-80
2023/12/30 02:49:20;;;;;;;;;;;9.50;99.90;;;;;;5015603;28;19971;-81
2023/12/30 02:51:46;;;;;;;;;;;9.50;99.90;;;;;;5022949;28;19909;-81
2023/12/30 02:54:11;;;;;;;;;;;9.50;99.90;;;;;;5025735;28;20296;-81
2023/12/30 02:56:37;;;;;;;;;;;9.50;99.90;;;;;;5025921;28;19909;-79
2023/12/30 02:59:02;;;;;;;;;;;9.50;99.90;;;;;;5025499;28;19916;-80
2023/12/30 03:01:31;;;;;;;;;;;9.50;99.90;;;;;;5031853;28;19927;-80
2023/12/30 03:03:57;;;;;;;;;;;9.50;99.90;;;;;;5025114;28;19917;-81
2023/12/30 03:06:23;;;;;;;;;;;9.60;99.90;;;;;;5025312;28;19916;-80
2023/12/30 03:08:48;;;;;;;;;;;9.60;99.90;;;;;;5025456;28;19939;-79
2023/12/30 03:11:14;;;;;;;;;;;9.60;99.90;;;;;;5025850;28;19920;-80
2023/12/30 03:13:40;;;;;;;;;;;9.60;99.90;;;;;;5025430;28;20399;-81
2023/12/30 03:16:06;;;;;;;;;;;9.60;99.90;;;;;;5025071;28;20488;-79
2023/12/30 03:18:31;;;;;;;;;;;9.60;99.90;;;;;;5024964;28;20317;-81
2023/12/30 03:20:57;;;;;;;;;;;9.60;99.90;;;;;;5025496;28;19909;-80
2023/12/30 03:23:22;;;;;;;;;;;9.60;99.90;;;;;;5018788;28;19923;-79
2023/12/30 03:25:48;;;;;;;;;;;9.50;99.90;;;;;;5025613;28;20435;-79
2023/12/30 03:28:13;;;;;;;;;;;9.50;99.90;;;;;;5025602;28;19916;-80
2023/12/30 03:30:39;;;;;;;;;;;9.50;99.90;;;;;;5024971;28;19948;-80
2023/12/30 03:33:05;;;;;;;;;;;9.50;99.90;;;;;;5024557;28;19963;-80
2023/12/30 03:35:32;;;;;;;;;;;9.50;99.90;;;;;;5021591;28;20383;-80
2023/12/30 03:37:57;;;;;;;;;;;9.50;99.90;;;;;;5024548;28;20039;-81
2023/12/30 03:40:23;;;;;;;;;;;9.50;99.90;;;;;;5024504;28;19909;-81
2023/12/30 03:42:48;;;;;;;;;;;9.50;99.90;;;;;;5024998;28;19959;-80
2023/12/30 03:45:14;;;;;;;;;;;9.50;99.90;;;;;;5024285;28;20914;-80
2023/12/30 03:47:39;;;;;;;;;;;9.50;99.90;;;;;;5025162;28;19913;-81
2023/12/30 03:50:05;;;;;;;;;;;9.30;99.90;;;;;;5020315;28;19940;-81
2023/12/30 03:52:30;;;;;;;;;;;9.20;99.90;;;;;;5024969;28;20784;-80
2023/12/30 03:54:56;;;;;;;;;;;9.10;99.90;;;;;;5024831;28;19909;-81
2023/12/30 03:57:22;;;;;;;;;;;9.20;99.90;;;;;;5025004;28;19913;-81
2023/12/30 03:59:47;;;;;;;;;;;9.20;99.90;;;;;;5024592;28;19948;-81
2023/12/30 04:02:17;;;;;;;;;;;9.20;99.90;;;;;;5038904;28;19967;-80
2023/12/30 04:04:42;;;;;;;;;;;9.10;99.90;;;;;;5029312;28;19913;-80
2023/12/30 04:07:08;;;;;;;;;;;9.10;99.90;;;;;;5024325;28;19909;-80
2023/12/30 04:09:34;;;;;;;;;;;9.10;99.90;;;;;;5022340;28;20487;-82
2023/12/30 04:11:59;;;;;;;;;;;9.10;99.90;;;;;;5023945;28;20003;-81
2023/12/30 04:14:25;;;;;;;;;;;9.20;99.90;;;;;;5024181;28;20008;-83
2023/12/30 04:16:50;;;;;;;;;;;9.20;99.90;;;;;;5024258;28;20689;-82
2023/12/30 04:19:16;;;;;;;;;;;9.20;99.90;;;;;;5016165;28;19917;-80
2023/12/30 04:21:41;;;;;;;;;;;9.20;99.90;;;;;;5033819;28;19917;-81
2023/12/30 04:24:07;;;;;;;;;;;9.20;99.90;;;;;;5017082;28;19931;-79
2023/12/30 04:26:32;;;;;;;;;;;9.10;99.90;;;;;;5024139;28;19916;-80
2023/12/30 04:28:59;;;;;;;;;;;9.10;99.90;;;;;;5024389;28;19967;-80
2023/12/30 04:31:24;;;;;;;;;;;9.10;99.90;;;;;;5023517;28;19948;-80
2023/12/30 04:33:50;;;;;;;;;;;9.00;99.90;;;;;;5022143;28;19963;-81
2023/12/30 04:36:15;;;;;;;;;;;9.10;99.90;;;;;;5023507;28;19943;-82
2023/12/30 04:38:41;;;;;;;;;;;9.10;99.90;;;;;;5020202;28;19923;-81
2023/12/30 04:41:06;;;;;;;;;;;9.10;99.90;;;;;;5023584;28;20723;-80
2023/12/30 04:43:32;;;;;;;;;;;9.00;99.90;;;;;;5022103;28;19956;-79
2023/12/30 04:45:58;;;;;;;;;;;8.90;99.90;;;;;;5023374;28;19946;-80
2023/12/30 04:48:23;;;;;;;;;;;8.90;99.90;;;;;;5023695;28;19916;-79
2023/12/30 04:50:49;;;;;;;;;;;9.00;99.90;;;;;;5016219;28;19945;-79
2023/12/30 04:53:14;;;;;;;;;;;9.00;99.90;;;;;;5023876;28;19924;-81
2023/12/30 04:55:40;;;;;;;;;;;9.10;99.90;;;;;;5023330;28;19913;-80
2023/12/30 04:58:05;;;;;;;;;;;9.10;99.90;;;;;;5038312;28;19909;-80
2023/12/30 05:00:31;;;;;;;;;;;9.20;99.90;;;;;;5022966;28;19919;-80
2023/12/30 05:02:56;;;;;;;;;;;9.20;99.90;;;;;;5022945;28;19931;-82
2023/12/30 05:05:22;;;;;;;;;;;9.10;99.90;;;;;;5022890;28;20000;-82
2023/12/30 05:07:47;;;;;;;;;;;9.00;99.90;;;;;;5022830;28;19909;-81
2023/12/30 05:10:13;;;;;;;;;;;8.80;99.90;;;;;;5022655;28;19937;-80
2023/12/30 05:12:38;;;;;;;;;;;8.90;99.90;;;;;;5031212;28;19931;-80
2023/12/30 05:15:04;;;;;;;;;;;8.90;99.90;;;;;;5030913;28;20739;-80
2023/12/30 05:17:31;;;;;;;;;;;8.90;99.90;;;;;;5023113;28;19913;-80
2023/12/30 05:19:56;;;;;;;;;;;8.90;99.90;;;;;;5031867;28;19913;-80
2023/12/30 05:22:22;;;;;;;;;;;8.90;99.90;;;;;;5014648;28;20446;-80
2023/12/30 05:24:48;;;;;;;;;;;8.90;99.90;;;;;;5020087;28;19986;-79
2023/12/30 05:27:13;;;;;;;;;;;8.90;99.90;;;;;;5023398;28;19919;-82
2023/12/30 05:29:39;;;;;;;;;;;8.90;99.90;;;;;;5021704;28;20388;-81
2023/12/30 05:32:05;;;;;;;;;;;8.90;99.90;;;;;;5023236;28;20000;-81
2023/12/30 05:34:30;;;;;;;;;;;8.90;99.90;;;;;;5022972;28;20203;-79
2023/12/30 05:36:56;;;;;;;;;;;9.00;99.90;;;;;;5022409;28;19916;-81
2023/12/30 05:39:22;;;;;;;;;;;8.90;99.90;;;;;;5022651;28;19908;-81
2023/12/30 05:41:47;;;;;;;;;;;8.90;99.90;;;;;;5023012;28;19912;-81
2023/12/30 05:44:13;;;;;;;;;;;8.80;99.90;;;;;;5023030;28;20312;-80
2023/12/30 05:46:38;;;;;;;;;;;8.80;99.90;;;;;;5022354;28;19945;-80
2023/12/30 05:49:04;;;;;;;;;;;8.70;99.90;;;;;;5017961;28;19972;-81
2023/12/30 05:51:29;;;;;;;;;;;8.70;99.90;;;;;;5020624;28;19959;-82
2023/12/30 05:53:55;;;;;;;;;;;8.70;99.90;;;;;;5023234;28;20391;-80
2023/12/30 05:56:22;;;;;;;;;;;8.60;99.90;;;;;;5022277;28;19909;-82
2023/12/30 05:58:48;;;;;;;;;;;8.60;99.90;;;;;;5022516;28;19909;-80
2023/12/30 06:01:14;;;;;;;;;;;8.60;99.90;;;;;;5022121;28;19964;-82
2023/12/30 06:03:39;;;;;;;;;;;8.50;99.90;;;;;;5022263;28;20377;-80
2023/12/30 06:06:05;;;;;;;;;;;8.60;99.90;;;;;;5022707;28;19905;-82
2023/12/30 06:08:31;;;;;;;;;;;8.60;99.90;;;;;;5022488;28;20000;-80
2023/12/30 06:10:57;;;;;;;;;;;8.50;99.90;;;;;;5022882;28;19916;-81
2023/12/30 06:13:22;;;;;;;;;;;8.50;99.90;;;;;;5022924;28;19909;-80
2023/12/30 06:15:49;;;;;;;;;;;8.50;99.90;;;;;;5022424;28;19909;-80
2023/12/30 06:18:15;;;;;;;;;;;8.60;99.90;;;;;;5022214;28;20603;-82
2023/12/30 06:20:42;;;;;;;;;;;8.50;99.90;;;;;;5022777;28;19909;-80
2023/12/30 06:23:08;;;;;;;;;;;8.60;99.90;;;;;;5012006;28;19917;-80
2023/12/30 06:25:33;;;;;;;;;;;8.60;99.90;;;;;;5020601;28;19917;-79
2023/12/30 06:27:59;;;;;;;;;;;8.50;99.90;;;;;;5025931;28;19964;-80
2023/12/30 06:30:24;;;;;;;;;;;8.50;99.90;;;;;;5024772;28;20527;-80
2023/12/30 06:32:50;;;;;;;;;;;8.30;99.90;;;;;;5041305;28;19913;-80
2023/12/30 06:35:16;;;;;;;;;;;8.10;99.90;;;;;;5025874;28;19931;-80
2023/12/30 06:37:41;;;;;;;;;;;8.10;99.90;;;;;;5026123;28;20391;-80
2023/12/30 06:40:07;;;;;;;;;;;8.10;99.90;;;;;;5026056;28;19912;-80
2023/12/30 06:42:33;;;;;;;;;;;8.20;99.90;;;;;;5026296;28;19912;-81
2023/12/30 06:44:58;;;;;;;;;;;8.10;99.90;;;;;;5025750;28;20043;-80
2023/12/30 06:47:24;;;;;;;;;;;8.10;99.90;;;;;;5026029;28;19976;-81
2023/12/30 06:49:49;;;;;;;;;;;8.10;99.90;;;;;;5019822;28;19921;-80
2023/12/30 06:52:17;;;;;;;;;;;8.10;99.90;;;;;;5026205;28;20013;-81
2023/12/30 06:54:43;;;;;;;;;;;7.90;99.90;;;;;;5025620;28;20046;-80
2023/12/30 06:57:08;;;;;;;;;;;8.00;99.90;;;;;;5025434;28;20000;-81
2023/12/30 06:59:35;;;;;;;;;;;8.10;99.90;;;;;;5025296;28;20803;-81
2023/12/30 07:02:00;;;;;;;;;;;8.00;99.90;;;;;;5025384;28;20449;-80
2023/12/30 07:04:26;;;;;;;;;;;7.90;99.90;;;;;;5025285;28;19913;-82
2023/12/30 07:06:52;;;;;;;;;;;7.90;99.90;;;;;;5025365;28;19909;-81
2023/12/30 07:09:18;;;;;;;;;;;7.90;99.90;;;;;;5025528;28;20400;-80
2023/12/30 07:11:43;;;;;;;;;;;8.10;99.90;;;;;;5025348;28;19999;-80
2023/12/30 07:14:09;;;;;;;;;;;8.20;99.90;;;;;;5032104;28;20325;-84
2023/12/30 07:16:35;;;;;;;;;;;8.30;99.90;;;;;;5031748;28;19915;-79
2023/12/30 07:19:00;;;;;;;;;;;8.20;99.90;;;;;;5033784;28;19943;-79
2023/12/30 07:21:26;;;;;;;;;;;8.20;99.90;;;;;;5033633;28;19992;-80
2023/12/30 07:23:51;;;;;;;;;;;8.20;99.90;;;;;;5016092;28;19916;-78
2023/12/30 07:26:17;;;;;;;;;;;8.30;99.90;;;;;;5024823;28;19909;-81
2023/12/30 07:28:42;;;;;;;;;;;8.40;99.90;;;;;;5025158;28;20047;-78
2023/12/30 07:31:08;;;;;;;;;;;8.40;99.90;;;;;;5024047;28;20041;-80
2023/12/30 07:33:35;;;;;;;;;;;8.20;99.90;;;;;;5023776;28;19995;-80
2023/12/30 07:36:03;;;;;;;;;;;8.10;99.90;;;;;;5025210;28;19936;-81
2023/12/30 07:38:30;;;;;;;;;;;8.10;99.90;;;;;;5024809;28;20376;-80
2023/12/30 07:40:56;;;;;;;;;;;8.10;99.90;;;;;;5023090;28;19909;-81
2023/12/30 07:43:21;;;;;;;;;;;8.10;99.90;;;;;;5023418;28;19963;-80
2023/12/30 07:45:47;;;;;;;;;;;8.20;99.90;;;;;;5024518;28;20011;-82
2023/12/30 07:48:13;;;;;;;;;;;8.30;99.90;;;;;;5024541;28;20360;-80
2023/12/30 07:50:38;;;;;;;;;;;8.40;99.90;;;;;;5018623;28;19990;-79
2023/12/30 07:53:04;;;;;;;;;;;8.60;99.90;;;;;;5025046;28;19909;-80
2023/12/30 07:55:29;;;;;;;;;;;8.70;99.90;;;;;;5024960;28;19919;-80
2023/12/30 07:57:55;;;;;;;;;;;8.80;99.90;;;;;;5024371;28;20887;-81
2023/12/30 08:00:21;;;;;;;;;;;8.60;99.90;;;;;;5024533;28;20672;-81
2023/12/30 08:02:47;;;;;;;;;;;8.60;99.90;;;;;;5024507;28;20353;-82
2023/12/30 08:05:12;;;;;;;;;;;8.40;99.90;;;;;;5024306;28;19962;-80
2023/12/30 08:07:38;;;;;;;;;;;8.30;99.90;;;;;;5021716;28;20506;-80
2023/12/30 08:10:03;;;;;;;;;;;8.20;99.90;;;;;;5024688;28;19917;-79
2023/12/30 08:12:29;;;;;;;;;;;8.30;99.90;;;;;;5024788;28;19916;-80
2023/12/30 08:14:55;;;;;;;;;;;8.40;99.90;;;;;;5031415;28;19916;-79
2023/12/30 08:17:20;;;;;;;;;;;8.40;99.90;;;;;;5024186;28;19913;-80
2023/12/30 08:19:46;;;;;;;;;;;8.50;99.90;;;;;;5024242;28;20591;-79
2023/12/30 08:22:11;;;;;;;;;;;8.50;99.90;;;;;;5017418;28;19916;-81
2023/12/30 08:24:37;;;;;;;;;;;8.60;99.90;;;;;;5020801;28;19916;-79
2023/12/30 08:27:02;;;;;;;;;;;8.60;99.90;;;;;;5024174;28;19909;-80
2023/12/30 08:29:28;;;;;;;;;;;8.50;99.90;;;;;;5023385;28;19960;-79
2023/12/30 08:31:53;;;;;;;;;;;8.40;99.90;;;;;;5023823;28;19967;-80
2023/12/30 08:34:21;;;;;;;;;;;8.50;99.90;;;;;;5023374;28;20800;-80
2023/12/30 08:36:46;;;;;;;;;;;8.60;99.90;;;;;;5023853;28;19992;-81
2023/12/30 08:39:12;;;;;;;;;;;8.80;99.90;;;;;;5021607;28;20024;-81
2023/12/30 08:41:38;;;;;;;;;;;8.90;99.90;;;;;;5025491;28;19909;-81
2023/12/30 08:44:03;;;;;;;;;;;9.10;99.90;;;;;;5024156;28;19909;-80
2023/12/30 08:46:29;;;;;;;;;;;9.20;99.90;;;;;;5023342;28;19913;-79
2023/12/30 08:48:54;;;;;;;;;;;9.20;99.90;;;;;;5016782;28;20410;-80
2023/12/30 08:51:20;;;;;;;;;;;9.20;99.90;;;;;;5020133;28;19960;-80
2023/12/30 08:53:46;;;;;;;;;;;9.20;99.90;;;;;;5023575;28;19909;-80
2023/12/30 08:56:11;;;;;;;;;;;9.10;99.90;;;;;;5023595;28;19915;-80
2023/12/30 08:58:37;;;;;;;;;;;9.10;99.90;;;;;;5023569;28;19905;-80
2023/12/30 09:01:02;;;;;;;;;;;9.10;99.90;;;;;;5022777;28;19917;-79
2023/12/30 09:03:28;;;;;;;;;;;9.00;99.90;;;;;;5038584;28;20454;-80
2023/12/30 09:05:53;;;;;;;;;;;8.80;99.90;;;;;;5022712;28;20439;-81
2023/12/30 09:08:19;;;;;;;;;;;8.80;99.90;;;;;;5023150;28;20040;-81
2023/12/30 09:10:45;;;;;;;;;;;9.00;99.90;;;;;;5022759;28;20454;-81
2023/12/30 09:13:11;;;;;;;;;;;9.20;99.90;;;;;;5023512;28;19915;-79
2023/12/30 09:15:36;;;;;;;;;;;9.50;99.90;;;;;;5023157;28;19916;-80
2023/12/30 09:18:02;;;;;;;;;;;9.90;99.90;;;;;;5022781;28;20336;-82
2023/12/30 09:20:27;;;;;;;;;;;9.80;99.90;;;;;;5022800;28;19970;-80
2023/12/30 09:22:53;;;;;;;;;;;9.80;99.90;;;;;;5012624;28;20426;-80
2023/12/30 09:25:18;;;;;;;;;;;9.80;99.90;;;;;;5023543;28;20008;-81
2023/12/30 09:27:45;;;;;;;;;;;9.70;99.90;;;;;;5023452;28;20349;-81
2023/12/30 09:30:10;;;;;;;;;;;9.80;99.90;;;;;;5022797;28;20627;-80
2023/12/30 09:32:36;;;;;;;;;;;10.20;99.90;;;;;;5023246;28;19984;-79
2023/12/30 09:35:03;;;;;;;;;;;10.40;99.90;;;;;;5022636;28;19909;-80
2023/12/30 09:37:28;;;;;;;;;;;10.50;99.90;;;;;;5015834;28;19909;-79
2023/12/30 09:39:54;;;;;;;;;;;10.50;99.90;;;;;;5022702;28;19971;-81
2023/12/30 09:42:20;;;;;;;;;;;10.60;99.90;;;;;;5022915;28;19933;-80
2023/12/30 09:44:46;;;;;;;;;;;10.60;99.90;;;;;;5022066;28;19971;-79
2023/12/30 09:47:11;;;;;;;;;;;10.70;99.90;;;;;;5016911;28;19909;-80
2023/12/30 09:49:37;;;;;;;;;;;10.80;99.90;;;;;;5017389;28;19918;-80
2023/12/30 09:52:05;;;;;;;;;;;10.90;99.90;;;;;;5022794;28;19916;-80
2023/12/30 09:54:30;;;;;;;;;;;11.10;99.90;;;;;;5022877;28;19983;-79
2023/12/30 09:56:57;;;;;;;;;;;11.20;99.90;;;;;;5022254;28;19912;-80
2023/12/30 09:59:26;;;;;;;;;;;11.00;99.90;;;;;;5022129;28;19908;-80
2023/12/30 10:01:53;;;;;;;;;;;11.10;99.90;;;;;;5021011;28;19921;-80
2023/12/30 10:04:18;;;;;;;;;;;11.40;99.90;;;;;;5022598;28;19963;-81
2023/12/30 10:06:45;;;;;;;;;;;11.20;99.90;;;;;;5029741;28;19947;-80
2023/12/30 10:09:11;;;;;;;;;;;11.20;99.90;;;;;;5022203;28;19921;-80
2023/12/30 10:11:37;;;;;;;;;;;11.70;99.90;;;;;;5022751;28;19909;-80
2023/12/30 10:14:02;;;;;;;;;;;11.50;99.90;;;;;;5022541;28;19909;-80
2023/12/30 10:16:29;;;;;;;;;;;11.70;99.90;;;;;;5021722;28;20436;-80
2023/12/30 10:18:56;;;;;;;;;;;12.00;99.90;;;;;;5021404;28;19913;-80
2023/12/30 10:21:21;;;;;;;;;;;11.80;99.90;;;;;;5021392;28;19920;-80
2023/12/30 10:23:51;;;;;;;;;;;12.00;99.90;;;;;;5012347;28;19909;-79
2023/12/30 10:26:16;;;;;;;;;;;11.90;99.90;;;;;;5022204;28;19909;-80
2023/12/30 10:28:42;;;;;;;;;;;11.90;99.90;;;;;;5037371;28;19917;-80
2023/12/30 10:31:08;;;;;;;;;;;11.80;99.90;;;;;;5022290;28;20003;-80
2023/12/30 10:33:35;;;;;;;;;;;11.80;99.90;;;;;;5022144;28;19998;-80
2023/12/30 10:36:04;;;;;;;;;;;11.80;99.90;;;;;;5022183;28;20004;-80
2023/12/30 10:38:30;;;;;;;;;;;11.70;99.90;;;;;;5022706;28;19913;-80
2023/12/30 10:40:56;;;;;;;;;;;11.90;99.90;;;;;;5022276;28;20416;-80
2023/12/30 10:43:22;;;;;;;;;;;11.60;99.90;;;;;;5022315;28;19915;-81
2023/12/30 10:45:54;;;;;;;;;;;11.70;99.90;;;;;;5022527;28;19909;-80
2023/12/30 10:48:20;;;;;;;;;;;11.60;99.90;;;;;;5022114;28;20686;-80
2023/12/30 10:50:46;;;;;;;;;;;11.50;99.90;;;;;;5017501;28;19909;-79
2023/12/30 10:53:22;;;;;;;;;;;11.20;99.90;;;;;;5022082;28;19913;-79
2023/12/30 10:55:50;;;;;;;;;;;11.30;99.90;;;;;;5022213;28;20083;-79
2023/12/30 10:58:19;;;;;;;;;;;11.50;99.90;;;;;;5019803;28;19909;-80
2023/12/30 11:00:48;;;;;;;;;;;11.70;99.90;;;;;;5020338;28;19932;-80
2023/12/30 11:03:13;;;;;;;;;;;11.90;99.90;;;;;;5021537;28;19913;-79
2023/12/30 11:05:59;;;;;;;;;;;12.00;99.90;;;;;;5018757;28;20012;-80
2023/12/30 11:08:25;;;;;;;;;;;12.20;99.90;;;;;;5007683;28;20356;-80
2023/12/30 11:10:51;;;;;;;;;;;12.20;99.90;;;;;;5021138;28;19909;-79
2023/12/30 11:13:18;;;;;;;;;;;12.60;99.90;;;;;;5024160;28;20451;-79
2023/12/30 11:15:44;;;;;;;;;;;12.40;99.90;;;;;;5025315;28;19915;-81
2023/12/30 11:18:12;;;;;;;;;;;12.50;99.90;;;;;;5024968;28;19917;-80
2023/12/30 11:20:43;;;;;;;;;;;12.40;99.90;;;;;;5025238;28;19986;-80
2023/12/30 11:23:10;;;;;;;;;;;12.70;99.90;;;;;;5011053;28;19909;-81
2023/12/30 11:25:46;;;;;;;;;;;12.80;99.90;;;;;;5025461;28;19905;-80
2023/12/30 11:28:14;;;;;;;;;;;12.70;99.90;;;;;;5025629;28;20003;-80
2023/12/30 11:30:41;;;;;;;;;;;12.70;99.90;;;;;;5024331;28;20025;-80
2023/12/30 11:33:07;;;;;;;;;;;12.80;99.90;;;;;;5024614;28;19908;-80
2023/12/30 11:35:32;;;;;;;;;;;12.90;99.90;;;;;;5025161;28;19916;-80
2023/12/30 11:38:01;;;;;;;;;;;12.90;99.90;;;;;;5024740;28;19909;-80
2023/12/30 11:40:28;;;;;;;;;;;13.00;99.90;;;;;;5039482;28;20372;-80
2023/12/30 11:42:54;;;;;;;;;;;12.90;99.90;;;;;;5039738;28;19909;-82
2023/12/30 11:45:21;;;;;;;;;;;12.70;99.90;;;;;;5025091;28;19954;-80
2023/12/30 11:47:46;;;;;;;;;;;13.30;99.90;;;;;;5019809;28;19931;-79
2023/12/30 11:50:12;;;;;;;;;;;13.20;99.90;;;;;;5018520;28;20447;-81
2023/12/30 11:52:41;;;;;;;;;;;12.50;99.90;;;;;;5024775;28;19909;-79
2023/12/30 11:55:07;;;;;;;;;;;12.30;99.90;;;;;;5022340;28;19909;-80
2023/12/30 11:57:33;;;;;;;;;;;12.00;99.90;;;;;;5024466;28;19915;-80
2023/12/30 11:59:59;;;;;;;;;;;12.00;99.90;;;;;;5024170;28;19909;-80
2023/12/30 12:02:25;;;;;;;;;;;12.10;99.90;;;;;;5025136;28;19995;-81
2023/12/30 12:04:50;;;;;;;;;;;12.00;99.90;;;;;;5024277;28;19913;-80
2023/12/30 12:07:16;;;;;;;;;;;11.90;99.90;;;;;;5024556;28;19920;-81
2023/12/30 12:09:43;;;;;;;;;;;12.30;99.90;;;;;;5013764;28;19917;-81
2023/12/30 12:12:09;;;;;;;;;;;12.50;99.90;;;;;;5024655;28;20012;-80
2023/12/30 12:14:35;;;;;;;;;;;12.40;99.90;;;;;;5024281;28;19952;-80
2023/12/30 12:17:06;;;;;;;;;;;12.50;99.90;;;;;;5022154;28;19966;-81
2023/12/30 12:19:33;;;;;;;;;;;12.60;99.90;;;;;;5023729;28;19959;-82
2023/12/30 12:22:01;;;;;;;;;;;13.00;99.90;;;;;;5018303;28;20392;-80
2023/12/30 12:24:27;;;;;;;;;;;13.20;99.90;;;;;;5018532;28;19909;-80
2023/12/30 12:26:53;;;;;;;;;;;13.20;99.90;;;;;;5023623;28;19915;-81
2023/12/30 12:29:18;;;;;;;;;;;12.60;99.90;;;;;;5023967;28;19917;-79
2023/12/30 12:31:45;;;;;;;;;;;12.10;99.90;;;;;;5023287;28;19909;-80
2023/12/30 12:34:21;;;;;;;;;;;12.10;99.90;;;;;;5037678;28;20716;-78
2023/12/30 12:36:47;;;;;;;;;;;12.40;99.90;;;;;;5039084;28;20602;-79
2023/12/30 12:39:13;;;;;;;;;;;12.40;99.90;;;;;;5038010;28;19912;-80
2023/12/30 12:41:38;;;;;;;;;;;12.60;99.90;;;;;;5025793;28;19924;-79
2023/12/30 12:44:04;;;;;;;;;;;12.80;99.90;;;;;;5028086;28;19912;-79
2023/12/30 12:46:30;;;;;;;;;;;12.70;99.90;;;;;;5022878;28;19917;-79
2023/12/30 12:48:55;;;;;;;;;;;12.70;99.90;;;;;;5020966;28;20368;-78
2023/12/30 12:51:22;;;;;;;;;;;12.80;99.90;;;;;;5023025;28;20356;-80
2023/12/30 12:53:50;;;;;;;;;;;12.50;99.90;;;;;;5021523;28;20415;-80
2023/12/30 12:56:16;;;;;;;;;;;12.50;99.90;;;;;;5024159;28;19934;-81
2023/12/30 12:58:42;;;;;;;;;;;12.70;99.90;;;;;;5037365;28;20774;-81
2023/12/30 13:01:07;;;;;;;;;;;13.00;99.90;;;;;;5022172;28;19925;-81
2023/12/30 13:03:33;;;;;;;;;;;12.60;99.90;;;;;;5027290;28;20015;-81
2023/12/30 13:06:10;;;;;;;;;;;12.60;99.90;;;;;;5026601;28;20756;-81
2023/12/30 13:08:36;;;;;;;;;;;12.40;99.90;;;;;;5020426;28;20300;-81
2023/12/30 13:11:02;;;;;;;;;;;12.70;99.90;;;;;;5021650;28;19913;-81
2023/12/30 13:13:29;;;;;;;;;;;12.50;99.90;;;;;;5023204;28;19919;-83
2023/12/30 13:16:00;;;;;;;;;;;12.60;99.90;;;;;;5022737;28;19974;-82
2023/12/30 13:18:28;;;;;;;;;;;12.80;99.90;;;;;;5021595;28;20516;-81
2023/12/30 13:20:55;;;;;;;;;;;12.80;99.90;;;;;;5023255;28;19962;-81
2023/12/30 13:23:21;;;;;;;;;;;12.80;99.90;;;;;;5028487;28;19913;-80
2023/12/30 13:25:47;;;;;;;;;;;12.80;99.90;;;;;;5022975;28;19936;-81
2023/12/30 13:28:14;;;;;;;;;;;12.60;99.90;;;;;;5024391;28;20003;-82
2023/12/30 13:30:40;;;;;;;;;;;12.80;99.90;;;;;;5028730;28;20678;-80
2023/12/30 13:33:09;;;;;;;;;;;12.90;99.90;;;;;;5024044;28;19939;-81
2023/12/30 13:35:34;;;;;;;;;;;12.90;99.90;;;;;;5022534;28;19912;-81
2023/12/30 13:38:00;;;;;;;;;;;13.00;99.90;;;;;;5023362;28;19924;-80
2023/12/30 13:40:27;;;;;;;;;;;13.10;99.90;;;;;;5017814;28;19959;-81
2023/12/30 13:42:54;;;;;;;;;;;12.90;99.90;;;;;;5021832;28;19913;-82
2023/12/30 13:45:21;;;;;;;;;;;12.70;99.90;;;;;;5018866;28;19913;-83
2023/12/30 13:50:30;;;;;;;;;;;12.50;99.90;;;;;;5005482;28;19926;-81
2023/12/30 13:53:00;;;;;;;;;;;12.50;99.90;;;;;;5012661;28;19967;-77
2023/12/30 13:55:32;;;;;;;;;;;12.60;99.90;;;;;;5023407;28;20005;-77
2023/12/30 13:58:00;;;;;;;;;;;12.70;99.90;;;;;;5019780;28;19909;-82
2023/12/30 14:00:26;;;;;;;;;;;12.80;99.90;;;;;;5022472;28;20374;-78
2023/12/30 14:02:52;;;;;;;;;;;12.70;99.90;;;;;;5022056;28;19929;-78
2023/12/30 14:05:23;;;;;;;;;;;12.80;99.90;;;;;;5028476;28;19912;-78
2023/12/30 14:07:51;;;;;;;;;;;12.60;99.90;;;;;;5021908;28;19916;-78
2023/12/30 14:10:18;;;;;;;;;;;12.60;99.90;;;;;;5021829;28;19921;-78
2023/12/30 14:12:44;;;;;;;;;;;12.80;99.90;;;;;;5022234;28;20395;-78
2023/12/30 14:15:13;;;;;;;;;;;12.70;99.90;;;;;;5022232;28;20020;-78
2023/12/30 14:17:40;;;;;;;;;;;12.70;99.90;;;;;;5027810;28;19920;-78
2023/12/30 14:20:06;;;;;;;;;;;12.70;99.90;;;;;;5021896;28;19995;-78
2023/12/30 14:22:32;;;;;;;;;;;12.70;99.90;;;;;;5019983;28;20085;-80